F
Liste des engagé(e)s
Classement
PDF
   
         
   
 
Pos N° Nom Prénom Pays Temps Ecart Pl. Cat. Pl. Sexe Club
1 136 DUPERTHUY JASON 00:44:30 BE 1 M SAINT GERVAIS HAUTE SAVOIE
2 133 PERROUD EWEN 00:45:15 45 PO 2 M AIX LES BAINS SAVOIE
3 85 FOURNIER GUILLAUME 00:46:43 02:13 MI 3 M SAINT FLOUR CANTAL
4 127 LIZON AU CIRE SAMUEL 00:47:08 02:38 BE 4 M LES ROUSSES JURA
5 145 GARNIER SEBASTIEN 00:47:14 02:44 BE 5 M LANSLEBOURG SAVOIE
6 106 MERMET-BURNET CEDRIC 00:47:17 02:47 CA 6 M LES COULOIRS JURA
7 109 CART LAMY YOHANN 00:47:20 02:50 CA 7 M BOIS D'AMONT JURA
8 135 KOEGLER ALIX 00:48:15 03:45 BE 8 M LES GETS HAUTE SAVOIE
9 162 DELACROIX ANTOINE 00:48:17 03:47 MI 9 M LES COMBES JURA
10 164 RIVIERE GREGOIRE 00:48:20 03:50 BE 10 M MEYLAN ISERE
11 168 DAUDET FRANCK 00:50:50 06:20 ES 11 M ALES GARD
12 116 FONTAINE EMMANUEL 00:51:10 06:40 JU 12 M SDIS 74 HAUTE SAVOIE
13 124 PROVILLE ROMAIN 00:51:45 07:15 CA 13 M NOVALAISE SAVOIE
14 93 BONNY GUILLAUME 00:52:06 07:36 JU 14 M CHARIX APREMONT AIN
15 126 BAILLY-SALINS OLIVIER 00:53:00 08:30 JU 15 M LES ROUSSES JURA
16 105 GRENARD THOMAS 00:53:33 09:03 BE 16 M LES COULOIRS JURA
17 107 CAMELIN BORIS 00:54:34 10:04 BE 17 M MOREZ JURA
18 161 CAMBRAY ETIENNE 00:55:35 11:05 BE 18 M LES COMBES JURA
19 132 PERRET FABIEN 00:55:44 11:14 CA 19 M SDIS 73 SAVOIE
20 128 VANDEL ANTHONY 00:56:08 11:38 BE 20 M LES ROUSSES JURA
21 110 CART LAMY ERIC 00:56:45 12:15 JU 21 M BOIS D'AMONT JURA
22 130 PIRALLA ROMAIN 00:57:03 12:33 PO 22 M MONTPERREUX DOUBS
23 98 BLANCHARD GUILLAUME 00:57:53 13:23 MI 23 M SDIS 42 LOIRE
24 83 DENIS CHRISTOPHE 00:58:02 13:32 MI 24 M BOURG EN BRESSE AIN
25 111 BERTHET TISSOT MARC ANTOINE 00:58:11 13:41 BE 25 M BOIS D'AMONT JURA
26 95 SKRZYNSKI THOMAS 00:58:28 13:58 MI 26 M SDIS 42 LOIRE
27 118 FALLAVIER ROCH 00:58:29 13:59 PO 27 M HAUTEVILLE AIN
28 140 LAPRAS VICTOR 00:58:37 14:07 MI 28 M SAINT GERVAIS HAUTE SAVOIE
29 143 RICHARD Julien 00:58:38 14:08 SE 29 M LANSLEBOURG SAVOIE
30 103 RETY FLORENT 00:58:50 14:20 MI 30 M OYONNAX AIN
31 86 CLAMENS PATRICK 00:59:21 14:51 JU 31 M ALES GARD
32 167 DLUBACZ WILLIAM WOJCIECH 00:59:38 15:08 ES 32 M ALES GARD
33 112 LACROIX STEPHANE 00:59:55 15:25 JU 33 M BOIS D'AMONT JURA
34 90 GAGLIARDI MICKAEL 01:01:25 16:55 BE 34 M FONCINE LE HAUT JURA
35 94 CHATAGNON EMMANUEL 01:01:59 17:29 CA 35 M SDIS 42 LOIRE
36 134 ALBERTAZZI Fabrice 01:02:22 17:52 MI 36 M EVIAN LES BAINS HAUTE SAVOIE
37 102 LUGAND LAURENT 01:02:47 18:17 JU 37 M OYONNAX AIN
38 160 BEAUMONT TRISTAN 01:02:55 18:25 BE 38 M VALLOIRE SAVOIE
39 129 FERRER JULES 01:03:23 18:53 BE 39 M LANGO/SAINT-MACAIRE GIRONDE
40 96 VIALLA FABIEN 01:03:26 18:56 CA 40 M SDIS 42 LOIRE
41 125 LELOURDY DIDIER 01:04:05 19:35 JU 41 M LES ROUSSES JURA
42 131 PIRALLA THEO 01:04:39 20:09 PO 42 M MONTPERREUX DOUBS
43 104 RIGAUD ALEXIS 01:05:16 20:46 BE 43 M OYONNAX AIN
44 154 GAUBERT PIERRE JEAN 01:05:35 21:05 MI 44 M MODANE SAVOIE
45 147 FINIEL LUDOVIC 01:06:08 21:38 MI 45 M LANSLEBOURG SAVOIE
46 115 GINDRE CUET MICKAEL 01:06:19 21:49 MI 46 M LONGCHAUMOIS JURA
47 87 LIOTARD GUILLAUME 01:07:40 23:10 MI 47 M ALES GARD
48 123 ROOMS FREDERIC 01:08:59 24:29 CA 48 M METZ MOSELLE
49 159 GIRAUD ERIC 01:10:06 25:36 JU 49 M VALLOIRE SAVOIE
50 84 BONNORON LOUIS 01:11:35 27:05 BE 50 M VIRY JURA
51 148 HANDTSCHOEWERCKER QUENTIN 01:11:42 27:12 BE 51 M CLISSON LOIRE ATLANTIQUE
52 166 ?DOSSARD #166 01:11:51 27:21 SE 52 M
53 89 VUITTON LOIC 01:13:02 28:32 MI 53 M FONCINE LE HAUT JURA
54 137 SALENNE DAVID 01:14:43 30:13 JU 54 M SAINT GERVAIS HAUTE SAVOIE
55 97 BECHERAS ANTOINE 01:14:59 30:29 CA 55 M SDIS 42 LOIRE
56 149 HUBER ARNAUD 01:15:07 30:37 JU 56 M BOURG EN BRESSE AIN
57 138 RICHAUD PHILIPPE 01:16:33 32:03 JU 57 M SAINT GERVAIS HAUTE SAVOIE
58 100 LEFEVRE FABIEN 01:19:00 34:30 PO 58 M SDIS 42 LOIRE
59 158 ESTHEVENIN QUENTIN 01:23:18 38:48 PO 59 M MODANE SAVOIE
60 155 GUEHO CEDRIC 01:24:59 40:29 CA 60 M MODANE SAVOIE
61 157 LOURAICHI STEEVE 01:25:34 41:04 MI 61 M MODANE SAVOIE
62 170 VIDAL LUC 01:25:40 41:10 ES 62 M ALES GARD
63 153 DAGAND LIONEL 01:26:41 42:11 BE 63 M MODANE SAVOIE
64 99 COLOMBET THOMAS 01:27:58 43:28 PO 64 M SDIS 42 LOIRE
65 113 TISSOT JULIEN 01:31:51 47:21 MI 65 M LONGCHAUMOIS JURA
66 101 HOSTACHY KEVIN 01:32:40 48:10 BE 66 M SDIS 42 LOIRE
67 152 DUTEL FREDERIC 01:43:05 58:35 JU 67 M BO MAURIENNE SAVOIE
68 92 GUY XAVIER 01:46:28 01:01:58 PO 68 M FONCINE LE HAUT JURA
69 88 CERF NATHAMEL 01:47:47 01:03:17 JU 69 M ALES GARD
70 108 RONDOT RAPHAEL 01:48:51 01:04:21 BE 70 M MOREZ JURA
71 122 DEGRENIER BRUNO 02:00:03 01:15:33 JU 71 M MARCQ EN BAROEUL NORD
72 141 VEILLARD JIMMY 02:00:05 01:15:35 BE 72 M SAINT GERVAIS HAUTE SAVOIE
  Championnat de France pompiers de ski de fond - 15km 2017
 
Nombre ou lettres (3 minimum)
Classement    
Filtre :
Rang :